sensor_id;sensor_type;location;lat;lon;timestamp;P1;durP1;ratioP1;P2;durP2;ratioP2
78298;SDS011;67556;55.656;12.590;2023-06-26T00:00:05;8.30;;;7.47;;
78298;SDS011;67556;55.656;12.590;2023-06-26T00:02:33;9.80;;;8.57;;
78298;SDS011;67556;55.656;12.590;2023-06-26T00:05:00;7.55;;;6.72;;
78298;SDS011;67556;55.656;12.590;2023-06-26T00:07:28;9.57;;;8.23;;
78298;SDS011;67556;55.656;12.590;2023-06-26T00:09:55;9.60;;;8.40;;
78298;SDS011;67556;55.656;12.590;2023-06-26T00:12:34;9.98;;;8.98;;
78298;SDS011;67556;55.656;12.590;2023-06-26T00:15:19;11.98;;;9.20;;
78298;SDS011;67556;55.656;12.590;2023-06-26T00:18:05;10.48;;;8.95;;
78298;SDS011;67556;55.656;12.590;2023-06-26T00:20:51;9.93;;;8.63;;
78298;SDS011;67556;55.656;12.590;2023-06-26T00:23:36;10.98;;;9.73;;
78298;SDS011;67556;55.656;12.590;2023-06-26T00:26:09;11.20;;;9.00;;
78298;SDS011;67556;55.656;12.590;2023-06-26T00:28:55;12.63;;;10.23;;
78298;SDS011;67556;55.656;12.590;2023-06-26T00:31:38;11.32;;;10.10;;
78298;SDS011;67556;55.656;12.590;2023-06-26T00:34:23;13.52;;;11.23;;
78298;SDS011;67556;55.656;12.590;2023-06-26T00:36:51;14.20;;;11.07;;
78298;SDS011;67556;55.656;12.590;2023-06-26T00:39:25;13.93;;;10.82;;
78298;SDS011;67556;55.656;12.590;2023-06-26T00:42:02;15.00;;;11.10;;
78298;SDS011;67556;55.656;12.590;2023-06-26T00:44:48;14.32;;;11.20;;
78298;SDS011;67556;55.656;12.590;2023-06-26T00:47:15;14.40;;;11.88;;
78298;SDS011;67556;55.656;12.590;2023-06-26T00:49:52;14.15;;;12.20;;
78298;SDS011;67556;55.656;12.590;2023-06-26T00:52:40;16.52;;;12.75;;
78298;SDS011;67556;55.656;12.590;2023-06-26T00:55:07;13.88;;;12.10;;
78298;SDS011;67556;55.656;12.590;2023-06-26T00:57:55;15.13;;;12.02;;
78298;SDS011;67556;55.656;12.590;2023-06-26T01:00:22;13.35;;;10.93;;
78298;SDS011;67556;55.656;12.590;2023-06-26T01:03:07;17.65;;;13.60;;
78298;SDS011;67556;55.656;12.590;2023-06-26T01:05:34;18.50;;;13.02;;
78298;SDS011;67556;55.656;12.590;2023-06-26T01:08:20;16.35;;;13.07;;
78298;SDS011;67556;55.656;12.590;2023-06-26T01:10:49;15.07;;;12.18;;
78298;SDS011;67556;55.656;12.590;2023-06-26T01:13:35;16.95;;;13.90;;
78298;SDS011;67556;55.656;12.590;2023-06-26T01:16:10;16.27;;;13.90;;
78298;SDS011;67556;55.656;12.590;2023-06-26T01:19:04;18.95;;;13.75;;
78298;SDS011;67556;55.656;12.590;2023-06-26T01:21:36;14.90;;;12.50;;
78298;SDS011;67556;55.656;12.590;2023-06-26T01:24:26;15.35;;;11.88;;
78298;SDS011;67556;55.656;12.590;2023-06-26T01:27:09;14.15;;;11.77;;
78298;SDS011;67556;55.656;12.590;2023-06-26T01:30:05;14.95;;;11.80;;
78298;SDS011;67556;55.656;12.590;2023-06-26T01:32:34;15.07;;;12.02;;
78298;SDS011;67556;55.656;12.590;2023-06-26T01:35:20;14.02;;;11.75;;
78298;SDS011;67556;55.656;12.590;2023-06-26T01:37:47;15.70;;;12.50;;
78298;SDS011;67556;55.656;12.590;2023-06-26T01:40:32;15.75;;;12.57;;
78298;SDS011;67556;55.656;12.590;2023-06-26T01:43:00;15.68;;;12.65;;
78298;SDS011;67556;55.656;12.590;2023-06-26T01:45:46;14.52;;;12.30;;
78298;SDS011;67556;55.656;12.590;2023-06-26T01:48:16;17.10;;;13.70;;
78298;SDS011;67556;55.656;12.590;2023-06-26T01:51:02;14.93;;;12.38;;
78298;SDS011;67556;55.656;12.590;2023-06-26T01:53:48;14.00;;;11.90;;
78298;SDS011;67556;55.656;12.590;2023-06-26T01:56:19;13.70;;;11.65;;
78298;SDS011;67556;55.656;12.590;2023-06-26T01:59:09;15.07;;;11.82;;
78298;SDS011;67556;55.656;12.590;2023-06-26T02:01:38;14.52;;;11.90;;
78298;SDS011;67556;55.656;12.590;2023-06-26T02:04:24;11.95;;;10.65;;
78298;SDS011;67556;55.656;12.590;2023-06-26T02:06:57;17.45;;;11.38;;
78298;SDS011;67556;55.656;12.590;2023-06-26T02:09:42;14.18;;;11.10;;
78298;SDS011;67556;55.656;12.590;2023-06-26T02:12:09;13.88;;;11.82;;
78298;SDS011;67556;55.656;12.590;2023-06-26T02:14:55;16.83;;;12.35;;
78298;SDS011;67556;55.656;12.590;2023-06-26T02:17:22;16.17;;;13.00;;
78298;SDS011;67556;55.656;12.590;2023-06-26T02:20:14;18.05;;;13.45;;
78298;SDS011;67556;55.656;12.590;2023-06-26T02:22:41;15.07;;;12.25;;
78298;SDS011;67556;55.656;12.590;2023-06-26T02:25:26;16.58;;;13.23;;
78298;SDS011;67556;55.656;12.590;2023-06-26T02:28:12;17.77;;;13.48;;
78298;SDS011;67556;55.656;12.590;2023-06-26T02:30:40;17.30;;;14.25;;
78298;SDS011;67556;55.656;12.590;2023-06-26T02:33:25;16.38;;;13.30;;
78298;SDS011;67556;55.656;12.590;2023-06-26T02:35:51;19.05;;;13.85;;
78298;SDS011;67556;55.656;12.590;2023-06-26T02:38:36;17.65;;;14.02;;
78298;SDS011;67556;55.656;12.590;2023-06-26T02:41:03;16.85;;;13.15;;
78298;SDS011;67556;55.656;12.590;2023-06-26T02:43:47;17.85;;;13.00;;
78298;SDS011;67556;55.656;12.590;2023-06-26T02:46:15;17.42;;;13.70;;
78298;SDS011;67556;55.656;12.590;2023-06-26T02:49:00;17.98;;;14.00;;
78298;SDS011;67556;55.656;12.590;2023-06-26T02:51:27;18.38;;;13.73;;
78298;SDS011;67556;55.656;12.590;2023-06-26T02:54:12;17.50;;;13.82;;
78298;SDS011;67556;55.656;12.590;2023-06-26T02:56:38;21.10;;;15.98;;
78298;SDS011;67556;55.656;12.590;2023-06-26T02:59:23;21.20;;;14.57;;
78298;SDS011;67556;55.656;12.590;2023-06-26T03:01:51;22.63;;;15.18;;
78298;SDS011;67556;55.656;12.590;2023-06-26T03:04:18;19.40;;;15.07;;
78298;SDS011;67556;55.656;12.590;2023-06-26T03:07:05;20.65;;;16.48;;
78298;SDS011;67556;55.656;12.590;2023-06-26T03:09:31;22.77;;;17.55;;
78298;SDS011;67556;55.656;12.590;2023-06-26T03:12:16;24.55;;;19.15;;
78298;SDS011;67556;55.656;12.590;2023-06-26T03:14:43;25.00;;;18.88;;
78298;SDS011;67556;55.656;12.590;2023-06-26T03:17:29;25.95;;;20.20;;
78298;SDS011;67556;55.656;12.590;2023-06-26T03:20:14;29.00;;;19.38;;
78298;SDS011;67556;55.656;12.590;2023-06-26T03:22:41;24.77;;;19.40;;
78298;SDS011;67556;55.656;12.590;2023-06-26T03:25:26;25.02;;;19.02;;
78298;SDS011;67556;55.656;12.590;2023-06-26T03:27:53;25.48;;;18.33;;
78298;SDS011;67556;55.656;12.590;2023-06-26T03:30:38;24.45;;;19.25;;
78298;SDS011;67556;55.656;12.590;2023-06-26T03:33:06;22.02;;;15.45;;
78298;SDS011;67556;55.656;12.590;2023-06-26T03:35:50;21.77;;;16.50;;
78298;SDS011;67556;55.656;12.590;2023-06-26T03:38:17;19.52;;;15.00;;
78298;SDS011;67556;55.656;12.590;2023-06-26T03:41:02;16.27;;;13.52;;
78298;SDS011;67556;55.656;12.590;2023-06-26T03:43:47;17.98;;;12.63;;
78298;SDS011;67556;55.656;12.590;2023-06-26T03:46:14;16.27;;;12.38;;
78298;SDS011;67556;55.656;12.590;2023-06-26T03:49:00;14.70;;;11.73;;
78298;SDS011;67556;55.656;12.590;2023-06-26T03:51:27;14.98;;;11.68;;
78298;SDS011;67556;55.656;12.590;2023-06-26T03:54:12;14.77;;;12.15;;
78298;SDS011;67556;55.656;12.590;2023-06-26T03:56:38;15.02;;;11.38;;
78298;SDS011;67556;55.656;12.590;2023-06-26T03:59:23;13.88;;;10.57;;
78298;SDS011;67556;55.656;12.590;2023-06-26T04:01:50;12.18;;;10.20;;
78298;SDS011;67556;55.656;12.590;2023-06-26T04:04:37;11.95;;;10.45;;
78298;SDS011;67556;55.656;12.590;2023-06-26T04:07:04;10.65;;;9.13;;
78298;SDS011;67556;55.656;12.590;2023-06-26T04:09:49;13.32;;;10.20;;
78298;SDS011;67556;55.656;12.590;2023-06-26T04:12:18;12.10;;;9.38;;
78298;SDS011;67556;55.656;12.590;2023-06-26T04:15:04;13.60;;;10.40;;
78298;SDS011;67556;55.656;12.590;2023-06-26T04:17:31;10.80;;;8.65;;
78298;SDS011;67556;55.656;12.590;2023-06-26T04:20:18;11.13;;;8.90;;
78298;SDS011;67556;55.656;12.590;2023-06-26T04:22:45;12.00;;;9.65;;
78298;SDS011;67556;55.656;12.590;2023-06-26T04:25:31;11.23;;;8.88;;
78298;SDS011;67556;55.656;12.590;2023-06-26T04:27:57;10.82;;;9.60;;
78298;SDS011;67556;55.656;12.590;2023-06-26T04:30:42;12.50;;;9.00;;
78298;SDS011;67556;55.656;12.590;2023-06-26T04:33:09;10.60;;;8.52;;
78298;SDS011;67556;55.656;12.590;2023-06-26T04:35:56;11.68;;;9.07;;
78298;SDS011;67556;55.656;12.590;2023-06-26T04:38:23;9.88;;;8.68;;
78298;SDS011;67556;55.656;12.590;2023-06-26T04:40:55;9.43;;;8.32;;
78298;SDS011;67556;55.656;12.590;2023-06-26T04:43:38;10.50;;;8.52;;
78298;SDS011;67556;55.656;12.590;2023-06-26T04:46:04;10.45;;;8.40;;
78298;SDS011;67556;55.656;12.590;2023-06-26T04:48:43;8.43;;;7.45;;
78298;SDS011;67556;55.656;12.590;2023-06-26T04:51:13;8.05;;;7.22;;
78298;SDS011;67556;55.656;12.590;2023-06-26T04:53:40;9.13;;;7.32;;
78298;SDS011;67556;55.656;12.590;2023-06-26T04:56:25;8.25;;;6.93;;
78298;SDS011;67556;55.656;12.590;2023-06-26T04:59:06;7.07;;;6.10;;
78298;SDS011;67556;55.656;12.590;2023-06-26T05:01:38;6.97;;;5.70;;
78298;SDS011;67556;55.656;12.590;2023-06-26T05:04:04;7.88;;;6.38;;
78298;SDS011;67556;55.656;12.590;2023-06-26T05:06:44;7.32;;;5.78;;
78298;SDS011;67556;55.656;12.590;2023-06-26T05:09:17;5.75;;;5.15;;
78298;SDS011;67556;55.656;12.590;2023-06-26T05:11:50;6.72;;;5.32;;
78298;SDS011;67556;55.656;12.590;2023-06-26T05:14:23;6.05;;;5.28;;
78298;SDS011;67556;55.656;12.590;2023-06-26T05:17:08;5.80;;;5.10;;
78298;SDS011;67556;55.656;12.590;2023-06-26T05:19:53;6.40;;;5.28;;
78298;SDS011;67556;55.656;12.590;2023-06-26T05:22:21;5.88;;;5.00;;
78298;SDS011;67556;55.656;12.590;2023-06-26T05:24:48;7.30;;;5.78;;
78298;SDS011;67556;55.656;12.590;2023-06-26T05:27:33;6.20;;;5.18;;
78298;SDS011;67556;55.656;12.590;2023-06-26T05:30:19;6.45;;;5.85;;
78298;SDS011;67556;55.656;12.590;2023-06-26T05:32:48;6.00;;;5.30;;
78298;SDS011;67556;55.656;12.590;2023-06-26T05:35:15;7.80;;;4.72;;
78298;SDS011;67556;55.656;12.590;2023-06-26T05:38:03;5.43;;;4.60;;
78298;SDS011;67556;55.656;12.590;2023-06-26T05:40:30;4.75;;;4.25;;
78298;SDS011;67556;55.656;12.590;2023-06-26T05:43:01;5.57;;;4.38;;
78298;SDS011;67556;55.656;12.590;2023-06-26T05:45:30;4.75;;;4.25;;
78298;SDS011;67556;55.656;12.590;2023-06-26T05:48:18;5.55;;;4.25;;
78298;SDS011;67556;55.656;12.590;2023-06-26T05:50:45;6.20;;;4.35;;
78298;SDS011;67556;55.656;12.590;2023-06-26T05:53:32;6.10;;;4.32;;
78298;SDS011;67556;55.656;12.590;2023-06-26T05:55:59;4.90;;;4.38;;
78298;SDS011;67556;55.656;12.590;2023-06-26T05:58:44;6.03;;;4.47;;
78298;SDS011;67556;55.656;12.590;2023-06-26T06:01:11;4.65;;;4.03;;
78298;SDS011;67556;55.656;12.590;2023-06-26T06:03:43;5.13;;;4.63;;
78298;SDS011;67556;55.656;12.590;2023-06-26T06:06:29;5.50;;;4.28;;
78298;SDS011;67556;55.656;12.590;2023-06-26T06:08:57;6.15;;;4.32;;
78298;SDS011;67556;55.656;12.590;2023-06-26T06:11:39;5.40;;;4.90;;
78298;SDS011;67556;55.656;12.590;2023-06-26T06:14:25;6.13;;;4.60;;
78298;SDS011;67556;55.656;12.590;2023-06-26T06:16:51;5.30;;;4.57;;
78298;SDS011;67556;55.656;12.590;2023-06-26T06:19:32;5.18;;;4.63;;
78298;SDS011;67556;55.656;12.590;2023-06-26T06:22:10;5.43;;;4.15;;
78298;SDS011;67556;55.656;12.590;2023-06-26T06:24:50;5.07;;;4.57;;
78298;SDS011;67556;55.656;12.590;2023-06-26T06:27:27;4.57;;;4.18;;
78298;SDS011;67556;55.656;12.590;2023-06-26T06:30:13;4.90;;;4.40;;
78298;SDS011;67556;55.656;12.590;2023-06-26T06:32:40;4.72;;;4.30;;
78298;SDS011;67556;55.656;12.590;2023-06-26T06:35:25;5.85;;;4.30;;
78298;SDS011;67556;55.656;12.590;2023-06-26T06:37:51;5.07;;;4.57;;
78298;SDS011;67556;55.656;12.590;2023-06-26T06:40:38;6.68;;;4.43;;
78298;SDS011;67556;55.656;12.590;2023-06-26T06:43:23;4.72;;;4.22;;
78298;SDS011;67556;55.656;12.590;2023-06-26T06:46:08;5.95;;;4.38;;
78298;SDS011;67556;55.656;12.590;2023-06-26T06:48:35;7.68;;;4.22;;
78298;SDS011;67556;55.656;12.590;2023-06-26T06:51:20;4.95;;;4.15;;
78298;SDS011;67556;55.656;12.590;2023-06-26T06:53:46;5.13;;;4.47;;
78298;SDS011;67556;55.656;12.590;2023-06-26T06:56:17;5.80;;;4.75;;
78298;SDS011;67556;55.656;12.590;2023-06-26T06:59:02;4.78;;;4.28;;
78298;SDS011;67556;55.656;12.590;2023-06-26T07:01:28;4.63;;;3.80;;
78298;SDS011;67556;55.656;12.590;2023-06-26T07:04:13;5.82;;;3.95;;
78298;SDS011;67556;55.656;12.590;2023-06-26T07:06:40;4.50;;;4.07;;
78298;SDS011;67556;55.656;12.590;2023-06-26T07:09:25;5.35;;;4.15;;
78298;SDS011;67556;55.656;12.590;2023-06-26T07:11:52;5.20;;;4.20;;
78298;SDS011;67556;55.656;12.590;2023-06-26T07:14:27;4.55;;;4.03;;
78298;SDS011;67556;55.656;12.590;2023-06-26T07:17:12;5.85;;;4.03;;
78298;SDS011;67556;55.656;12.590;2023-06-26T07:19:38;4.53;;;4.00;;
78298;SDS011;67556;55.656;12.590;2023-06-26T07:22:23;5.25;;;4.47;;
78298;SDS011;67556;55.656;12.590;2023-06-26T07:24:50;7.75;;;4.57;;
78298;SDS011;67556;55.656;12.590;2023-06-26T07:27:19;6.22;;;4.32;;
78298;SDS011;67556;55.656;12.590;2023-06-26T07:30:05;6.22;;;4.05;;
78298;SDS011;67556;55.656;12.590;2023-06-26T07:32:35;6.90;;;4.40;;
78298;SDS011;67556;55.656;12.590;2023-06-26T07:35:17;5.65;;;4.32;;
78298;SDS011;67556;55.656;12.590;2023-06-26T07:38:00;5.43;;;4.20;;
78298;SDS011;67556;55.656;12.590;2023-06-26T07:40:34;4.65;;;3.72;;
78298;SDS011;67556;55.656;12.590;2023-06-26T07:43:20;4.85;;;4.30;;
78298;SDS011;67556;55.656;12.590;2023-06-26T07:45:50;4.30;;;3.90;;
78298;SDS011;67556;55.656;12.590;2023-06-26T07:48:20;5.13;;;4.07;;
78298;SDS011;67556;55.656;12.590;2023-06-26T07:51:05;5.03;;;4.07;;
78298;SDS011;67556;55.656;12.590;2023-06-26T07:53:32;4.53;;;4.13;;
78298;SDS011;67556;55.656;12.590;2023-06-26T07:56:17;5.97;;;4.40;;
78298;SDS011;67556;55.656;12.590;2023-06-26T07:58:45;4.57;;;4.18;;
78298;SDS011;67556;55.656;12.590;2023-06-26T08:01:21;6.60;;;4.75;;
78298;SDS011;67556;55.656;12.590;2023-06-26T08:03:56;5.40;;;4.15;;
78298;SDS011;67556;55.656;12.590;2023-06-26T08:06:41;4.60;;;4.15;;
78298;SDS011;67556;55.656;12.590;2023-06-26T08:09:08;4.78;;;4.30;;
78298;SDS011;67556;55.656;12.590;2023-06-26T08:11:42;7.07;;;4.20;;
78298;SDS011;67556;55.656;12.590;2023-06-26T08:14:29;4.88;;;4.03;;
78298;SDS011;67556;55.656;12.590;2023-06-26T08:16:56;5.78;;;4.43;;
78298;SDS011;67556;55.656;12.590;2023-06-26T08:19:43;4.40;;;4.00;;
78298;SDS011;67556;55.656;12.590;2023-06-26T08:22:09;4.78;;;4.07;;
78298;SDS011;67556;55.656;12.590;2023-06-26T08:24:52;4.63;;;4.18;;
78298;SDS011;67556;55.656;12.590;2023-06-26T08:27:24;5.47;;;4.07;;
78298;SDS011;67556;55.656;12.590;2023-06-26T08:29:58;4.95;;;4.38;;
78298;SDS011;67556;55.656;12.590;2023-06-26T08:32:35;4.80;;;4.03;;
78298;SDS011;67556;55.656;12.590;2023-06-26T08:35:04;5.10;;;3.80;;
78298;SDS011;67556;55.656;12.590;2023-06-26T08:37:50;5.07;;;4.03;;
78298;SDS011;67556;55.656;12.590;2023-06-26T08:40:23;6.32;;;4.10;;
78298;SDS011;67556;55.656;12.590;2023-06-26T08:42:57;4.75;;;3.95;;
78298;SDS011;67556;55.656;12.590;2023-06-26T08:45:32;5.97;;;4.40;;
78298;SDS011;67556;55.656;12.590;2023-06-26T08:48:11;5.25;;;4.00;;
78298;SDS011;67556;55.656;12.590;2023-06-26T08:50:48;6.07;;;4.38;;
78298;SDS011;67556;55.656;12.590;2023-06-26T08:53:23;6.05;;;4.70;;
78298;SDS011;67556;55.656;12.590;2023-06-26T08:56:15;5.72;;;4.47;;
78298;SDS011;67556;55.656;12.590;2023-06-26T08:58:46;6.55;;;4.88;;
78298;SDS011;67556;55.656;12.590;2023-06-26T09:01:27;5.85;;;4.80;;
78298;SDS011;67556;55.656;12.590;2023-06-26T09:04:04;5.53;;;5.03;;
78298;SDS011;67556;55.656;12.590;2023-06-26T09:06:34;6.18;;;5.20;;
78298;SDS011;67556;55.656;12.590;2023-06-26T09:09:19;6.55;;;5.85;;
78298;SDS011;67556;55.656;12.590;2023-06-26T09:12:04;6.97;;;6.30;;
78298;SDS011;67556;55.656;12.590;2023-06-26T09:14:31;6.22;;;5.35;;
78298;SDS011;67556;55.656;12.590;2023-06-26T09:17:01;8.07;;;6.45;;
78298;SDS011;67556;55.656;12.590;2023-06-26T09:19:47;8.18;;;5.85;;
78298;SDS011;67556;55.656;12.590;2023-06-26T09:22:14;7.20;;;6.00;;
78298;SDS011;67556;55.656;12.590;2023-06-26T09:24:48;6.82;;;6.20;;
78298;SDS011;67556;55.656;12.590;2023-06-26T09:27:23;8.70;;;6.35;;
78298;SDS011;67556;55.656;12.590;2023-06-26T09:30:08;7.97;;;6.57;;
78298;SDS011;67556;55.656;12.590;2023-06-26T09:32:36;7.28;;;6.50;;
78298;SDS011;67556;55.656;12.590;2023-06-26T09:35:21;7.63;;;6.55;;
78298;SDS011;67556;55.656;12.590;2023-06-26T09:37:48;9.18;;;6.07;;
78298;SDS011;67556;55.656;12.590;2023-06-26T09:40:34;8.75;;;5.90;;
78298;SDS011;67556;55.656;12.590;2023-06-26T09:43:03;8.00;;;6.18;;
78298;SDS011;67556;55.656;12.590;2023-06-26T09:45:45;6.57;;;5.78;;
78298;SDS011;67556;55.656;12.590;2023-06-26T09:48:21;7.05;;;6.25;;
78298;SDS011;67556;55.656;12.590;2023-06-26T09:51:06;7.25;;;6.40;;
78298;SDS011;67556;55.656;12.590;2023-06-26T09:53:33;6.97;;;5.95;;
78298;SDS011;67556;55.656;12.590;2023-06-26T09:56:14;6.72;;;6.05;;
78298;SDS011;67556;55.656;12.590;2023-06-26T09:58:59;10.00;;;6.47;;
78298;SDS011;67556;55.656;12.590;2023-06-26T10:01:27;11.60;;;6.65;;
78298;SDS011;67556;55.656;12.590;2023-06-26T10:04:07;7.03;;;6.22;;
78298;SDS011;67556;55.656;12.590;2023-06-26T10:06:43;7.97;;;6.30;;
78298;SDS011;67556;55.656;12.590;2023-06-26T10:09:17;7.70;;;6.40;;
78298;SDS011;67556;55.656;12.590;2023-06-26T10:12:06;7.72;;;7.03;;
78298;SDS011;67556;55.656;12.590;2023-06-26T10:14:34;7.45;;;6.20;;
78298;SDS011;67556;55.656;12.590;2023-06-26T10:17:21;9.38;;;7.10;;
78298;SDS011;67556;55.656;12.590;2023-06-26T10:19:50;8.80;;;7.30;;
78298;SDS011;67556;55.656;12.590;2023-06-26T10:22:39;7.13;;;6.30;;
78298;SDS011;67556;55.656;12.590;2023-06-26T10:25:21;9.50;;;6.90;;
78298;SDS011;67556;55.656;12.590;2023-06-26T10:28:06;7.68;;;6.88;;
78298;SDS011;67556;55.656;12.590;2023-06-26T10:30:55;7.65;;;6.88;;
78298;SDS011;67556;55.656;12.590;2023-06-26T10:33:29;7.97;;;7.03;;
78298;SDS011;67556;55.656;12.590;2023-06-26T10:36:15;8.60;;;6.90;;
78298;SDS011;67556;55.656;12.590;2023-06-26T10:38:50;7.50;;;6.63;;
78298;SDS011;67556;55.656;12.590;2023-06-26T10:41:36;11.27;;;6.80;;
78298;SDS011;67556;55.656;12.590;2023-06-26T10:44:08;9.88;;;6.80;;
78298;SDS011;67556;55.656;12.590;2023-06-26T10:46:55;8.70;;;6.82;;
78298;SDS011;67556;55.656;12.590;2023-06-26T10:49:24;7.40;;;6.60;;
78298;SDS011;67556;55.656;12.590;2023-06-26T10:52:12;8.90;;;6.40;;
78298;SDS011;67556;55.656;12.590;2023-06-26T10:54:38;8.88;;;7.03;;
78298;SDS011;67556;55.656;12.590;2023-06-26T10:57:23;7.90;;;6.80;;
78298;SDS011;67556;55.656;12.590;2023-06-26T11:02:58;8.23;;;6.60;;
78298;SDS011;67556;55.656;12.590;2023-06-26T11:05:26;7.03;;;6.32;;
78298;SDS011;67556;55.656;12.590;2023-06-26T11:08:14;7.05;;;6.35;;
78298;SDS011;67556;55.656;12.590;2023-06-26T11:11:02;8.88;;;6.68;;
78298;SDS011;67556;55.656;12.590;2023-06-26T11:13:48;7.45;;;6.35;;
78298;SDS011;67556;55.656;12.590;2023-06-26T11:16:14;8.13;;;6.32;;
78298;SDS011;67556;55.656;12.590;2023-06-26T11:19:00;7.65;;;6.85;;
78298;SDS011;67556;55.656;12.590;2023-06-26T11:21:46;10.02;;;9.02;;
78298;SDS011;67556;55.656;12.590;2023-06-26T11:24:14;10.13;;;9.02;;
78298;SDS011;67556;55.656;12.590;2023-06-26T11:27:02;9.65;;;6.50;;
78298;SDS011;67556;55.656;12.590;2023-06-26T11:29:31;7.45;;;6.30;;
78298;SDS011;67556;55.656;12.590;2023-06-26T11:32:17;7.93;;;6.68;;
78298;SDS011;67556;55.656;12.590;2023-06-26T11:34:43;8.77;;;6.05;;
78298;SDS011;67556;55.656;12.590;2023-06-26T11:37:28;6.95;;;6.20;;
78298;SDS011;67556;55.656;12.590;2023-06-26T11:39:56;8.18;;;6.43;;
78298;SDS011;67556;55.656;12.590;2023-06-26T11:42:48;7.90;;;6.10;;
78298;SDS011;67556;55.656;12.590;2023-06-26T11:45:43;7.38;;;6.60;;
78298;SDS011;67556;55.656;12.590;2023-06-26T11:48:29;7.70;;;6.60;;
78298;SDS011;67556;55.656;12.590;2023-06-26T11:50:55;7.00;;;6.30;;
78298;SDS011;67556;55.656;12.590;2023-06-26T11:53:30;7.05;;;6.10;;
78298;SDS011;67556;55.656;12.590;2023-06-26T11:55:59;6.47;;;5.88;;
78298;SDS011;67556;55.656;12.590;2023-06-26T11:58:56;6.55;;;5.95;;
78298;SDS011;67556;55.656;12.590;2023-06-26T12:01:44;7.43;;;5.80;;
78298;SDS011;67556;55.656;12.590;2023-06-26T12:04:12;7.40;;;6.70;;
78298;SDS011;67556;55.656;12.590;2023-06-26T12:07:00;7.47;;;6.38;;
78298;SDS011;67556;55.656;12.590;2023-06-26T12:09:48;8.77;;;6.68;;
78298;SDS011;67556;55.656;12.590;2023-06-26T12:12:35;9.13;;;7.20;;
78298;SDS011;67556;55.656;12.590;2023-06-26T12:15:02;8.13;;;6.90;;
78298;SDS011;67556;55.656;12.590;2023-06-26T12:17:30;9.48;;;7.53;;
78298;SDS011;67556;55.656;12.590;2023-06-26T12:20:19;7.47;;;6.53;;
78298;SDS011;67556;55.656;12.590;2023-06-26T12:22:48;9.02;;;7.07;;
78298;SDS011;67556;55.656;12.590;2023-06-26T12:25:21;7.82;;;7.03;;
78298;SDS011;67556;55.656;12.590;2023-06-26T12:27:50;8.50;;;7.07;;
78298;SDS011;67556;55.656;12.590;2023-06-26T12:30:34;8.52;;;6.78;;
78298;SDS011;67556;55.656;12.590;2023-06-26T12:33:12;7.32;;;6.60;;
78298;SDS011;67556;55.656;12.590;2023-06-26T12:35:39;7.55;;;6.78;;
78298;SDS011;67556;55.656;12.590;2023-06-26T12:38:07;7.82;;;7.03;;
78298;SDS011;67556;55.656;12.590;2023-06-26T12:40:34;7.18;;;6.47;;
78298;SDS011;67556;55.656;12.590;2023-06-26T12:43:25;9.10;;;7.45;;
78298;SDS011;67556;55.656;12.590;2023-06-26T12:45:53;7.57;;;6.85;;
78298;SDS011;67556;55.656;12.590;2023-06-26T12:48:37;7.95;;;7.25;;
78298;SDS011;67556;55.656;12.590;2023-06-26T12:51:27;7.95;;;6.80;;
78298;SDS011;67556;55.656;12.590;2023-06-26T12:53:53;8.50;;;7.13;;
78298;SDS011;67556;55.656;12.590;2023-06-26T12:56:20;8.05;;;7.25;;
78298;SDS011;67556;55.656;12.590;2023-06-26T12:58:48;8.93;;;7.45;;
78298;SDS011;67556;55.656;12.590;2023-06-26T13:01:34;8.30;;;7.43;;
78298;SDS011;67556;55.656;12.590;2023-06-26T13:04:13;7.68;;;6.97;;
78298;SDS011;67556;55.656;12.590;2023-06-26T13:06:47;8.90;;;8.00;;
78298;SDS011;67556;55.656;12.590;2023-06-26T13:09:31;8.60;;;7.18;;
78298;SDS011;67556;55.656;12.590;2023-06-26T13:12:01;9.27;;;7.93;;
78298;SDS011;67556;55.656;12.590;2023-06-26T13:14:48;9.35;;;7.43;;
78298;SDS011;67556;55.656;12.590;2023-06-26T13:17:14;9.75;;;8.40;;
78298;SDS011;67556;55.656;12.590;2023-06-26T13:19:55;9.63;;;5.95;;
78298;SDS011;67556;55.656;12.590;2023-06-26T13:22:43;9.32;;;5.07;;
78298;SDS011;67556;55.656;12.590;2023-06-26T13:25:29;12.40;;;5.32;;
78298;SDS011;67556;55.656;12.590;2023-06-26T13:28:14;9.02;;;5.35;;
78298;SDS011;67556;55.656;12.590;2023-06-26T13:33:44;7.55;;;4.75;;
78298;SDS011;67556;55.656;12.590;2023-06-26T13:36:32;9.57;;;4.60;;
78298;SDS011;67556;55.656;12.590;2023-06-26T13:38:59;8.52;;;4.22;;
78298;SDS011;67556;55.656;12.590;2023-06-26T13:41:27;9.95;;;4.90;;
78298;SDS011;67556;55.656;12.590;2023-06-26T13:44:00;10.20;;;4.85;;
78298;SDS011;67556;55.656;12.590;2023-06-26T13:46:30;13.18;;;5.20;;
78298;SDS011;67556;55.656;12.590;2023-06-26T13:48:58;11.10;;;5.60;;
78298;SDS011;67556;55.656;12.590;2023-06-26T13:51:43;12.38;;;5.40;;
78298;SDS011;67556;55.656;12.590;2023-06-26T13:54:12;12.15;;;4.82;;
78298;SDS011;67556;55.656;12.590;2023-06-26T13:56:57;10.27;;;4.95;;
78298;SDS011;67556;55.656;12.590;2023-06-26T13:59:27;9.77;;;4.57;;
78298;SDS011;67556;55.656;12.590;2023-06-26T14:02:13;11.27;;;5.75;;
78298;SDS011;67556;55.656;12.590;2023-06-26T14:04:40;12.43;;;5.57;;
78298;SDS011;67556;55.656;12.590;2023-06-26T14:07:16;12.85;;;5.10;;
78298;SDS011;67556;55.656;12.590;2023-06-26T14:09:42;9.85;;;5.38;;
78298;SDS011;67556;55.656;12.590;2023-06-26T14:12:11;14.38;;;5.57;;
78298;SDS011;67556;55.656;12.590;2023-06-26T14:14:56;10.23;;;5.82;;
78298;SDS011;67556;55.656;12.590;2023-06-26T14:17:24;9.63;;;5.30;;
78298;SDS011;67556;55.656;12.590;2023-06-26T14:20:07;9.98;;;5.03;;
78298;SDS011;67556;55.656;12.590;2023-06-26T14:22:56;7.97;;;4.50;;
78298;SDS011;67556;55.656;12.590;2023-06-26T14:25:23;8.70;;;4.57;;
78298;SDS011;67556;55.656;12.590;2023-06-26T14:28:08;8.65;;;5.55;;
78298;SDS011;67556;55.656;12.590;2023-06-26T14:30:34;10.57;;;5.32;;
78298;SDS011;67556;55.656;12.590;2023-06-26T14:33:20;9.50;;;5.00;;
78298;SDS011;67556;55.656;12.590;2023-06-26T14:36:05;8.98;;;4.90;;
78298;SDS011;67556;55.656;12.590;2023-06-26T14:38:31;7.22;;;4.80;;
78298;SDS011;67556;55.656;12.590;2023-06-26T14:41:17;8.65;;;5.70;;
78298;SDS011;67556;55.656;12.590;2023-06-26T14:43:43;6.95;;;5.45;;
78298;SDS011;67556;55.656;12.590;2023-06-26T14:46:29;7.57;;;4.60;;
78298;SDS011;67556;55.656;12.590;2023-06-26T14:48:57;7.05;;;5.22;;
78298;SDS011;67556;55.656;12.590;2023-06-26T14:51:42;8.75;;;5.10;;
78298;SDS011;67556;55.656;12.590;2023-06-26T14:54:08;7.25;;;4.57;;
78298;SDS011;67556;55.656;12.590;2023-06-26T14:56:53;8.90;;;4.85;;
78298;SDS011;67556;55.656;12.590;2023-06-26T14:59:20;9.00;;;4.90;;
78298;SDS011;67556;55.656;12.590;2023-06-26T15:01:58;9.68;;;5.22;;
78298;SDS011;67556;55.656;12.590;2023-06-26T15:04:27;8.70;;;5.28;;
78298;SDS011;67556;55.656;12.590;2023-06-26T15:06:56;8.18;;;4.63;;
78298;SDS011;67556;55.656;12.590;2023-06-26T15:09:23;11.02;;;5.40;;
78298;SDS011;67556;55.656;12.590;2023-06-26T15:11:49;9.48;;;5.57;;
78298;SDS011;67556;55.656;12.590;2023-06-26T15:14:16;7.63;;;5.00;;
78298;SDS011;67556;55.656;12.590;2023-06-26T15:16:42;7.80;;;5.53;;
78298;SDS011;67556;55.656;12.590;2023-06-26T15:19:09;6.45;;;5.05;;
78298;SDS011;67556;55.656;12.590;2023-06-26T15:21:36;8.07;;;5.55;;
78298;SDS011;67556;55.656;12.590;2023-06-26T15:24:03;8.73;;;6.03;;
78298;SDS011;67556;55.656;12.590;2023-06-26T15:26:30;12.13;;;6.57;;